Time;durP1;ratioP1;P1;durP2;ratioP2;P2;SDS_P1;SDS_P2;PMS_P1;PMS_P2;Temp;Humidity;BMP_temperature;BMP_pressure;BME280_temperature;BME280_humidity;BME280_pressure;Samples;Min_cycle;Max_cycle;Signal;HPM_P1;HPM_P2
2022/04/08 00:01:26;;;;;;;10.35;7.72;;;;;;;9.68;49.35;99384.44;1783780;80;21133;-74
2022/04/08 00:03:54;;;;;;;11.43;7.28;;;;;;;9.69;49.36;99377.41;1783507;80;20888;-74
2022/04/08 00:06:23;;;;;;;10.95;7.42;;;;;;;9.68;49.39;99366.60;1783533;80;20955;-73
2022/04/08 00:08:49;;;;;;;11.25;7.15;;;;;;;9.68;49.38;99373.97;1783849;80;20947;-74
2022/04/08 00:11:16;;;;;;;9.90;7.70;;;;;;;9.69;49.37;99374.34;1783972;80;20920;-74
2022/04/08 00:13:43;;;;;;;11.10;8.63;;;;;;;9.69;49.46;99366.94;1783569;80;21245;-74
2022/04/08 00:16:11;;;;;;;11.73;7.08;;;;;;;9.70;49.54;99362.91;1775348;80;20979;-73
2022/04/08 00:18:39;;;;;;;8.03;6.85;;;;;;;9.70;49.61;99364.22;1775681;80;21006;-74
2022/04/08 00:21:06;;;;;;;8.18;7.20;;;;;;;9.72;49.83;99361.01;1775368;80;21417;-75
2022/04/08 00:23:34;;;;;;;8.73;7.70;;;;;;;9.73;50.02;99365.28;1775556;80;20932;-74
2022/04/08 00:26:02;;;;;;;12.03;7.65;;;;;;;9.73;50.18;99351.36;1775241;80;20912;-74
2022/04/08 00:28:29;;;;;;;10.68;7.40;;;;;;;9.74;50.36;99353.05;1775509;80;20960;-74
2022/04/08 00:30:57;;;;;;;10.75;6.83;;;;;;;9.75;50.64;99342.92;1775389;80;20892;-75
2022/04/08 00:33:23;;;;;;;10.38;7.55;;;;;;;9.75;50.83;99346.36;1775558;80;20920;-75
2022/04/08 00:35:50;;;;;;;10.05;7.65;;;;;;;9.75;50.94;99342.44;1775447;80;20936;-73
2022/04/08 00:38:17;;;;;;;9.45;7.87;;;;;;;9.77;51.31;99341.50;1775966;80;21212;-74
2022/04/08 00:40:43;;;;;;;10.58;7.35;;;;;;;9.75;51.47;99343.75;1775532;80;20884;-75
2022/04/08 00:43:13;;;;;;;9.70;7.47;;;;;;;9.77;51.70;99344.13;1775569;80;20995;-75
2022/04/08 00:45:41;;;;;;;11.22;8.58;;;;;;;9.77;51.76;99341.02;1775468;80;20968;-75
2022/04/08 00:48:08;;;;;;;9.33;7.35;;;;;;;9.77;52.00;99332.34;1775603;80;21022;-74
2022/04/08 00:50:43;;;;;;;13.58;9.60;;;;;;;9.78;52.21;99333.98;1775462;80;21292;-75
2022/04/08 00:53:10;;;;;;;13.18;7.40;;;;;;;9.77;52.54;99332.34;1775461;80;21468;-75
2022/04/08 00:55:38;;;;;;;10.35;8.00;;;;;;;9.76;53.30;99326.28;1775588;80;20900;-76
2022/04/08 00:58:05;;;;;;;13.88;8.53;;;;;;;9.77;53.34;99324.00;1775369;80;20947;-77
2022/04/08 01:00:37;;;;;;;10.80;7.62;;;;;;;9.77;53.97;99312.22;1775726;80;20944;-75
2022/04/08 01:03:05;;;;;;;10.80;8.45;;;;;;;9.78;54.14;99314.36;1776003;80;21200;-76
2022/04/08 01:05:33;;;;;;;12.25;8.55;;;;;;;9.80;54.58;99309.84;1775485;80;20931;-76
2022/04/08 01:08:03;;;;;;;11.28;8.83;;;;;;;9.81;54.67;99317.58;1775529;80;20960;-73
2022/04/08 01:10:31;;;;;;;14.28;8.80;;;;;;;9.82;54.85;99308.76;1774774;80;20992;-75
2022/04/08 01:12:59;;;;;;;12.95;8.93;;;;;;;9.84;55.23;99306.03;1775906;80;20967;-73
2022/04/08 01:15:27;;;;;;;16.77;10.23;;;;;;;9.83;55.35;99294.73;1780202;80;21888;-74
2022/04/08 01:18:12;;;;;;;13.85;8.63;;;;;;;9.84;55.28;99290.32;1784049;80;20912;-75
2022/04/08 01:20:40;;;;;;;14.47;9.18;;;;;;;9.85;55.54;99294.59;1783833;80;20975;-74
2022/04/08 01:23:07;;;;;;;12.37;9.38;;;;;;;9.83;55.62;99300.45;1783620;80;20931;-74
2022/04/08 01:25:34;;;;;;;16.30;9.70;;;;;;;9.83;55.73;99284.74;1784219;80;20896;-74
2022/04/08 01:28:00;;;;;;;12.90;9.30;;;;;;;9.81;55.99;99287.47;1783931;80;21255;-73
2022/04/08 01:30:27;;;;;;;11.70;8.53;;;;;;;9.81;56.36;99282.23;1783751;80;20876;-75
2022/04/08 01:32:55;;;;;;;12.18;9.45;;;;;;;9.80;56.60;99284.48;1783762;80;20928;-74
2022/04/08 01:35:22;;;;;;;17.77;10.53;;;;;;;9.81;56.86;99272.25;1783685;80;21456;-74
2022/04/08 01:37:49;;;;;;;17.75;10.58;;;;;;;9.79;56.84;99272.84;1783886;80;20978;-73
2022/04/08 01:40:17;;;;;;;15.43;11.53;;;;;;;9.78;56.95;99277.22;1784137;80;21488;-73
2022/04/08 01:42:45;;;;;;;15.28;9.75;;;;;;;9.76;56.94;99273.91;1783737;80;20920;-75
2022/04/08 01:45:12;;;;;;;20.05;11.35;;;;;;;9.74;57.34;99279.75;1783970;80;21433;-74
2022/04/08 01:47:40;;;;;;;18.10;10.93;;;;;;;9.72;57.41;99271.17;1783747;80;20889;-74
2022/04/08 01:50:08;;;;;;;16.25;11.85;;;;;;;9.70;57.49;99265.23;1783927;80;20904;-74
2022/04/08 01:52:35;;;;;;;16.40;11.48;;;;;;;9.68;57.62;99261.89;1783781;80;21900;-74
2022/04/08 01:55:05;;;;;;;13.60;10.72;;;;;;;9.66;57.80;99259.87;1783678;80;21385;-75
2022/04/08 01:57:31;;;;;;;16.17;10.05;;;;;;;9.62;57.91;99257.95;1783994;80;21505;-73
2022/04/08 02:00:00;;;;;;;14.00;11.43;;;;;;;9.59;58.18;99252.14;1783822;80;20990;-75
2022/04/08 02:02:26;;;;;;;13.15;10.35;;;;;;;9.56;58.22;99246.68;1784158;80;20923;-74
2022/04/08 02:04:57;;;;;;;15.68;9.85;;;;;;;9.53;58.43;99242.48;1783589;80;21898;-74
2022/04/08 02:07:23;;;;;;;13.38;10.20;;;;;;;9.51;58.67;99242.26;1783982;80;21387;-75
2022/04/08 02:09:50;;;;;;;13.05;9.18;;;;;;;9.48;58.77;99241.20;1783894;80;20971;-75
2022/04/08 02:12:18;;;;;;;15.83;10.63;;;;;;;9.45;58.95;99239.66;1783605;80;21484;-75
2022/04/08 02:14:46;;;;;;;15.95;10.90;;;;;;;9.43;59.20;99250.72;1783860;80;20999;-71
2022/04/08 02:17:14;;;;;;;16.07;10.08;;;;;;;9.40;59.25;99247.49;1784915;80;20884;-72
2022/04/08 02:19:40;;;;;;;14.23;10.63;;;;;;;9.38;59.67;99250.70;1783558;80;21527;-74
2022/04/08 02:22:07;;;;;;;13.75;10.72;;;;;;;9.33;59.85;99254.50;1783687;80;20881;-74
2022/04/08 02:24:35;;;;;;;15.80;10.32;;;;;;;9.31;59.97;99243.31;1783569;80;21366;-74
2022/04/08 02:27:06;;;;;;;14.65;10.55;;;;;;;9.28;60.31;99237.02;1784195;80;20998;-74
2022/04/08 02:29:32;;;;;;;13.50;9.83;;;;;;;9.25;60.15;99241.20;1783766;80;21151;-73
2022/04/08 02:31:59;;;;;;;14.73;10.72;;;;;;;9.24;60.54;99241.30;1753685;80;21018;-75
2022/04/08 02:34:26;;;;;;;21.57;10.75;;;;;;;9.22;60.66;99232.26;1783898;80;21533;-76
2022/04/08 02:36:54;;;;;;;13.62;10.60;;;;;;;9.19;61.00;99223.34;1783707;80;21499;-74
2022/04/08 02:39:21;;;;;;;18.35;11.83;;;;;;;9.20;61.14;99222.87;1784306;80;20967;-74
2022/04/08 02:41:47;;;;;;;14.65;9.43;;;;;;;9.19;61.21;99222.52;1784068;80;21221;-74
2022/04/08 02:44:14;;;;;;;11.45;10.03;;;;;;;9.20;61.35;99217.16;1783808;80;20872;-76
2022/04/08 02:46:40;;;;;;;11.68;9.95;;;;;;;9.22;61.44;99217.05;1784198;80;21039;-75
2022/04/08 02:49:07;;;;;;;13.43;9.98;;;;;;;9.24;61.61;99213.84;1783857;80;20904;-75
2022/04/08 02:51:34;;;;;;;14.40;9.98;;;;;;;9.24;61.71;99214.66;1783700;80;21388;-75
2022/04/08 02:54:01;;;;;;;12.23;10.00;;;;;;;9.25;61.80;99218.10;1783539;80;21141;-76
2022/04/08 02:56:27;;;;;;;15.10;10.68;;;;;;;9.27;61.84;99207.05;1783431;80;20880;-75
2022/04/08 02:58:54;;;;;;;11.48;9.70;;;;;;;9.27;61.84;99208.36;1783539;80;20877;-74
2022/04/08 03:01:21;;;;;;;11.20;9.25;;;;;;;9.29;61.91;99206.45;1783839;80;20976;-75
2022/04/08 03:03:47;;;;;;;15.08;10.25;;;;;;;9.26;62.06;99201.48;1783493;80;20888;-74
2022/04/08 03:06:14;;;;;;;16.48;11.73;;;;;;;9.26;62.17;99197.07;1783550;80;21241;-75
2022/04/08 03:08:41;;;;;;;12.30;9.40;;;;;;;9.26;62.25;99207.53;1783857;80;20999;-75
2022/04/08 03:11:07;;;;;;;14.58;11.12;;;;;;;9.25;62.21;99203.27;1783693;80;20892;-74
2022/04/08 03:13:35;;;;;;;17.50;11.05;;;;;;;9.26;62.26;99206.70;1783490;80;20880;-75
2022/04/08 03:16:02;;;;;;;15.78;10.30;;;;;;;9.29;62.27;99203.84;1783479;80;20979;-74
2022/04/08 03:18:29;;;;;;;13.30;10.03;;;;;;;9.29;62.29;99204.70;1783526;80;21142;-74
2022/04/08 03:20:56;;;;;;;15.20;12.15;;;;;;;9.32;62.30;99208.37;1783537;80;20911;-75
2022/04/08 03:23:24;;;;;;;39.67;29.20;;;;;;;9.36;62.29;99208.98;1783547;80;20900;-76
2022/04/08 03:25:51;;;;;;;15.30;11.25;;;;;;;9.39;62.34;99210.52;1783488;80;20975;-75
2022/04/08 03:28:19;;;;;;;15.70;12.03;;;;;;;9.44;62.29;99210.98;1783422;80;20987;-75
2022/04/08 03:30:46;;;;;;;16.57;12.95;;;;;;;9.45;62.21;99203.02;1783832;80;21114;-76
2022/04/08 03:33:12;;;;;;;16.27;12.58;;;;;;;9.49;62.07;99197.91;1783411;80;20940;-76
2022/04/08 03:35:39;;;;;;;14.05;10.68;;;;;;;9.55;61.98;99203.13;1783499;80;20994;-76
2022/04/08 03:38:05;;;;;;;11.97;10.08;;;;;;;9.59;61.85;99198.01;1783814;80;20956;-76
2022/04/08 03:40:35;;;;;;;16.87;11.45;;;;;;;9.62;61.75;99195.14;1783972;80;20904;-74
2022/04/08 03:43:03;;;;;;;15.45;11.55;;;;;;;9.68;61.74;99198.59;1783604;80;21264;-75
2022/04/08 03:45:30;;;;;;;20.75;10.80;;;;;;;9.74;61.63;99196.80;1783636;80;21075;-75
2022/04/08 03:47:57;;;;;;;13.45;10.40;;;;;;;9.81;61.44;99201.07;1783556;80;20919;-76
2022/04/08 03:50:26;;;;;;;12.43;10.38;;;;;;;9.89;61.34;99207.84;1783506;80;20923;-75
2022/04/08 03:52:52;;;;;;;15.13;10.25;;;;;;;9.95;61.11;99206.02;1753061;80;20983;-73
2022/04/08 03:55:19;;;;;;;18.62;11.63;;;;;;;9.97;60.96;99207.22;1783531;80;21667;-75
2022/04/08 03:57:47;;;;;;;14.78;10.23;;;;;;;9.96;60.96;99205.08;1783642;80;20912;-75
2022/04/08 04:00:16;;;;;;;19.12;9.95;;;;;;;9.97;61.02;99209.84;1784613;80;20872;-75
2022/04/08 04:02:42;;;;;;;15.00;11.95;;;;;;;9.95;61.12;99200.78;1783547;80;20967;-76
2022/04/08 04:05:10;;;;;;;14.00;9.63;;;;;;;9.93;61.21;99197.45;1783415;80;20936;-74
2022/04/08 04:07:38;;;;;;;15.32;9.95;;;;;;;9.91;61.31;99191.50;1783910;80;21209;-74
2022/04/08 04:10:07;;;;;;;13.85;10.72;;;;;;;9.93;61.35;99190.08;1783427;80;20881;-75
2022/04/08 04:12:34;;;;;;;14.25;9.33;;;;;;;9.95;61.35;99196.86;1783973;80;20931;-75
2022/04/08 04:15:04;;;;;;;13.60;9.43;;;;;;;10.01;61.32;99196.03;1783363;80;20951;-75
2022/04/08 04:17:32;;;;;;;12.55;9.55;;;;;;;10.08;61.24;99198.02;1783526;80;20920;-75
2022/04/08 04:20:00;;;;;;;13.20;8.95;;;;;;;10.16;61.17;99190.86;1783498;80;20888;-75
2022/04/08 04:22:27;;;;;;;17.27;9.38;;;;;;;10.25;61.01;99204.52;1783357;80;21390;-75
2022/04/08 04:24:55;;;;;;;13.43;10.03;;;;;;;10.35;60.76;99208.06;1783352;80;20892;-75
2022/04/08 04:27:22;;;;;;;12.58;9.38;;;;;;;10.46;60.48;99201.95;1783766;80;20911;-77
2022/04/08 04:29:48;;;;;;;13.20;9.33;;;;;;;10.57;60.24;99203.69;1783741;80;20939;-76
2022/04/08 04:32:17;;;;;;;17.30;9.60;;;;;;;10.68;60.01;99203.63;1783478;80;21248;-74
2022/04/08 04:34:43;;;;;;;11.85;9.53;;;;;;;10.79;59.70;99204.05;1783493;80;20932;-76
2022/04/08 04:37:10;;;;;;;16.02;10.20;;;;;;;10.89;59.41;99214.59;1783592;80;21487;-75
2022/04/08 04:39:37;;;;;;;12.20;9.38;;;;;;;10.96;59.16;99205.23;1783587;80;20931;-76
2022/04/08 04:42:07;;;;;;;14.25;10.48;;;;;;;11.08;59.06;99210.77;1783656;80;21017;-75
2022/04/08 04:44:35;;;;;;;11.70;10.30;;;;;;;11.26;58.57;99201.81;1783696;80;20892;-75
2022/04/08 04:47:02;;;;;;;12.73;10.65;;;;;;;11.49;58.26;99207.69;1783687;80;20916;-74
2022/04/08 04:49:29;;;;;;;15.43;9.50;;;;;;;11.75;57.37;99213.31;1783828;80;20990;-74
2022/04/08 04:51:56;;;;;;;15.58;9.83;;;;;;;12.03;56.66;99205.67;1783647;80;20931;-76
2022/04/08 04:54:24;;;;;;;17.25;10.43;;;;;;;12.34;56.25;99199.81;1783584;80;20904;-76
2022/04/08 04:56:51;;;;;;;12.50;9.00;;;;;;;12.78;55.40;99201.52;1783671;80;21870;-75
2022/04/08 04:59:20;;;;;;;13.72;9.58;;;;;;;13.29;54.19;99198.62;1783659;80;20975;-75
2022/04/08 05:01:49;;;;;;;11.45;8.78;;;;;;;14.34;51.60;99195.98;1783560;80;21011;-74
2022/04/08 05:04:17;;;;;;;14.55;8.98;;;;;;;14.78;50.45;99187.62;1783745;80;21387;-74
2022/04/08 05:06:43;;;;;;;12.00;8.90;;;;;;;14.78;50.45;99187.62;1783920;80;20884;-76
2022/04/08 05:09:10;;;;;;;10.28;8.15;;;;;;;15.22;49.21;99181.45;1783517;80;21652;-75
2022/04/08 05:11:38;;;;;;;11.33;8.38;;;;;;;15.66;47.96;99186.10;1783605;80;21491;-75
2022/04/08 05:14:06;;;;;;;11.40;8.93;;;;;;;16.10;47.05;99185.09;1783563;80;20904;-77
2022/04/08 05:16:35;;;;;;;11.53;8.90;;;;;;;16.52;45.84;99183.64;1779126;80;21343;-75
2022/04/08 05:19:01;;;;;;;9.78;8.28;;;;;;;16.91;44.76;99190.89;1775343;80;20940;-74
2022/04/08 05:21:30;;;;;;;11.75;8.45;;;;;;;17.26;44.32;99180.06;1775252;80;21438;-76
2022/04/08 05:23:57;;;;;;;10.78;8.73;;;;;;;17.61;43.18;99181.42;1775428;80;20912;-75
2022/04/08 05:26:25;;;;;;;9.08;7.65;;;;;;;17.98;42.38;99183.39;1775396;80;20875;-77
2022/04/08 05:28:52;;;;;;;20.08;17.87;;;;;;;18.17;41.47;99178.14;1775189;80;21446;-76
2022/04/08 05:31:18;;;;;;;12.37;9.50;;;;;;;18.23;41.41;99187.23;1775369;80;20857;-75
2022/04/08 05:33:46;;;;;;;11.60;7.87;;;;;;;18.29;40.90;99183.03;1775524;80;21192;-76
2022/04/08 05:36:12;;;;;;;12.95;8.50;;;;;;;18.24;40.98;99183.56;1776237;80;20920;-75
2022/04/08 05:38:40;;;;;;;14.10;7.70;;;;;;;18.13;40.79;99182.65;1777408;80;21045;-73
2022/04/08 05:41:07;;;;;;;11.15;8.23;;;;;;;17.80;41.12;99177.00;1776932;80;21440;-76
2022/04/08 05:43:34;;;;;;;10.98;7.72;;;;;;;17.35;41.93;99171.09;1775325;80;20889;-77
2022/04/08 05:46:00;;;;;;;8.60;7.62;;;;;;;17.06;42.50;99173.01;1775537;80;21312;-78
2022/04/08 05:48:28;;;;;;;12.20;8.65;;;;;;;16.89;43.33;99177.00;1775472;80;20960;-76
2022/04/08 05:50:55;;;;;;;13.10;7.83;;;;;;;17.01;43.33;99176.64;1775653;80;20856;-74
2022/04/08 05:53:26;;;;;;;14.75;7.78;;;;;;;17.19;42.77;99170.66;1775285;80;20936;-76
2022/04/08 05:55:50;;;;;;;10.82;8.15;;;;;;;17.28;42.63;99168.30;1774926;80;20940;-75
2022/04/08 05:58:17;;;;;;;10.75;8.13;;;;;;;17.47;42.86;99169.70;1775258;80;21275;-75
2022/04/08 06:00:46;;;;;;;15.28;8.83;;;;;;;17.70;42.17;99173.75;1775321;80;20865;-77
2022/04/08 06:03:12;;;;;;;9.73;8.75;;;;;;;17.87;42.03;99164.41;1775377;80;20925;-76
2022/04/08 06:05:39;;;;;;;10.78;9.08;;;;;;;18.16;41.68;99161.05;1775696;80;20956;-76
2022/04/08 06:08:06;;;;;;;15.93;8.28;;;;;;;18.67;41.18;99157.83;1775450;80;21378;-77
2022/04/08 06:10:36;;;;;;;10.63;8.40;;;;;;;19.33;39.94;99164.13;1775366;80;20849;-75
2022/04/08 06:13:03;;;;;;;17.17;8.85;;;;;;;19.90;38.56;99168.40;1775145;80;20892;-76
2022/04/08 06:15:32;;;;;;;17.95;9.98;;;;;;;20.28;37.96;99160.52;1775205;80;21354;-76
2022/04/08 06:18:00;;;;;;;11.10;8.88;;;;;;;20.74;36.98;99163.77;1775225;80;20944;-76
2022/04/08 06:20:26;;;;;;;10.63;9.30;;;;;;;21.10;36.73;99162.29;1775614;80;21591;-76
2022/04/08 06:22:54;;;;;;;14.55;9.83;;;;;;;21.36;35.95;99164.25;1775212;80;21636;-77
2022/04/08 06:25:23;;;;;;;17.75;9.78;;;;;;;21.49;35.87;99159.53;1775281;80;20976;-76
2022/04/08 06:28:03;;;;;;;13.78;8.30;;;;;;;21.61;35.82;99157.95;1775374;80;20932;-74
2022/04/08 06:30:35;;;;;;;12.20;8.45;;;;;;;21.72;35.32;99160.04;1775221;80;21397;-75
2022/04/08 06:33:05;;;;;;;13.00;7.55;;;;;;;21.87;35.25;99159.04;1775272;80;20960;-76
2022/04/08 06:35:32;;;;;;;9.18;6.90;;;;;;;22.14;34.97;99163.43;1775282;80;21217;-76
2022/04/08 06:38:04;;;;;;;13.18;6.72;;;;;;;22.41;34.44;99166.65;1775181;80;20983;-75
2022/04/08 06:40:38;;;;;;;15.00;7.00;;;;;;;22.61;33.97;99153.30;1775276;80;20939;-77
2022/04/08 06:43:06;;;;;;;19.62;7.83;;;;;;;22.86;33.26;99162.85;1775427;80;20894;-77
2022/04/08 06:45:32;;;;;;;8.68;6.42;;;;;;;22.84;33.42;99168.91;1775340;80;20908;-76
2022/04/08 06:47:59;;;;;;;11.68;6.83;;;;;;;22.90;33.20;99172.92;1775176;80;21145;-76
2022/04/08 06:50:28;;;;;;;8.13;7.35;;;;;;;22.90;33.27;99181.43;1775330;80;20876;-75
2022/04/08 06:53:00;;;;;;;8.28;6.12;;;;;;;22.89;33.52;99189.97;1775265;80;21481;-76
2022/04/08 06:55:25;;;;;;;11.65;6.50;;;;;;;22.94;33.19;99187.52;1774885;80;20936;-75
2022/04/08 06:57:52;;;;;;;10.38;6.97;;;;;;;23.06;33.02;99181.05;1775230;80;20908;-75
2022/04/08 07:00:20;;;;;;;10.85;7.87;;;;;;;23.30;32.81;99180.89;1775436;80;21146;-75
2022/04/08 07:02:46;;;;;;;14.80;8.38;;;;;;;23.63;32.20;99170.56;1753724;80;21430;-75
2022/04/08 07:05:13;;;;;;;17.10;8.70;;;;;;;23.86;31.98;99175.97;1775630;80;20980;-77
2022/04/08 07:07:39;;;;;;;14.73;7.90;;;;;;;24.08;31.59;99181.30;1775307;80;20956;-77
2022/04/08 07:10:07;;;;;;;14.23;8.53;;;;;;;24.39;31.21;99179.13;1775201;80;21418;-76
2022/04/08 07:12:35;;;;;;;12.47;7.55;;;;;;;24.58;31.32;99176.53;1775255;80;21150;-75
2022/04/08 07:15:02;;;;;;;9.78;6.72;;;;;;;24.89;30.43;99181.52;1775481;80;20896;-75
2022/04/08 07:17:32;;;;;;;11.30;6.58;;;;;;;24.96;30.18;99181.75;1775137;80;20940;-75
2022/04/08 07:19:59;;;;;;;8.33;5.65;;;;;;;24.87;30.26;99175.03;1775486;80;20944;-75
2022/04/08 07:22:25;;;;;;;6.12;5.08;;;;;;;24.92;30.32;99174.37;1775334;80;21007;-75
2022/04/08 07:24:53;;;;;;;13.05;5.78;;;;;;;25.04;30.50;99171.27;1775185;80;21457;-76
2022/04/08 07:27:21;;;;;;;8.45;4.65;;;;;;;25.05;30.18;99179.59;1775179;80;21441;-74
2022/04/08 07:29:48;;;;;;;12.80;5.67;;;;;;;24.76;30.28;99175.75;1775334;80;20944;-74
2022/04/08 07:32:20;;;;;;;10.23;5.78;;;;;;;24.36;30.72;99176.05;1775254;80;20913;-74
2022/04/08 07:34:45;;;;;;;10.13;6.00;;;;;;;24.07;31.27;99178.82;1738043;82;21354;-77
2022/04/08 07:37:12;;;;;;;7.75;5.03;;;;;;;23.90;31.44;99179.83;1775376;80;21273;-76
2022/04/08 07:39:41;;;;;;;9.53;4.97;;;;;;;23.67;31.81;99179.00;1775338;80;21011;-76
2022/04/08 07:42:08;;;;;;;14.40;5.58;;;;;;;23.45;31.89;99189.98;1775314;80;20884;-76
2022/04/08 07:44:36;;;;;;;9.70;5.78;;;;;;;23.25;32.33;99178.00;1775313;80;21426;-75
2022/04/08 07:47:05;;;;;;;17.95;6.78;;;;;;;23.16;32.35;99180.59;1775261;80;21402;-75
2022/04/08 07:49:34;;;;;;;10.35;7.28;;;;;;;23.02;32.61;99180.33;1775312;80;21264;-75
2022/04/08 07:52:01;;;;;;;15.00;6.40;;;;;;;22.89;32.76;99187.30;1775125;80;21429;-75
2022/04/08 07:54:28;;;;;;;11.03;5.95;;;;;;;22.72;32.83;99184.73;1775269;80;20920;-75
2022/04/08 07:56:54;;;;;;;12.05;6.45;;;;;;;22.71;33.42;99182.59;1775470;80;20948;-78
2022/04/08 07:59:21;;;;;;;12.33;6.12;;;;;;;22.80;33.19;99183.20;1775337;80;21003;-76
2022/04/08 08:01:49;;;;;;;8.58;5.15;;;;;;;22.89;32.94;99184.63;1775215;80;21010;-76
2022/04/08 08:04:16;;;;;;;8.25;5.37;;;;;;;22.94;33.13;99185.34;1775153;80;20975;-75
2022/04/08 08:06:44;;;;;;;12.28;6.37;;;;;;;23.04;32.97;99192.98;1775136;80;21064;-75
2022/04/08 08:09:10;;;;;;;14.20;6.78;;;;;;;22.89;32.90;99181.95;1775193;80;20904;-75
2022/04/08 08:11:38;;;;;;;14.75;5.65;;;;;;;22.63;33.53;99177.95;1775216;80;20992;-75
2022/04/08 08:14:05;;;;;;;7.12;5.45;;;;;;;22.54;33.86;99180.02;1775364;80;21510;-76
2022/04/08 08:16:32;;;;;;;9.23;4.62;;;;;;;22.54;33.86;99178.19;1775696;80;20928;-76
2022/04/08 08:19:00;;;;;;;13.38;6.22;;;;;;;22.57;34.08;99180.95;1783476;80;20904;-74
2022/04/08 08:24:30;;;;;;;10.82;4.90;;;;;;;22.71;34.13;99173.23;1710049;79;21360;-83
2022/04/08 08:26:57;;;;;;;9.60;4.60;;;;;;;22.87;33.70;99162.63;1703237;82;21845;-84
2022/04/08 08:31:25;;;;;;;10.58;5.35;;;;;;;23.10;33.44;99168.06;1799153;79;23277;-84
2022/04/08 08:33:51;;;;;;;8.75;4.62;;;;;;;23.07;33.91;99171.98;1758548;80;20916;-84
2022/04/08 08:36:22;;;;;;;10.70;5.05;;;;;;;23.08;33.19;99172.83;1758419;81;21467;-84
2022/04/08 08:38:52;;;;;;;7.50;4.50;;;;;;;22.89;33.50;99171.26;1758869;81;21444;-85
2022/04/08 08:41:22;;;;;;;6.17;4.12;;;;;;;22.91;33.88;99171.06;1758592;81;21472;-86
2022/04/08 08:43:49;;;;;;;7.72;4.05;;;;;;;23.31;33.32;99164.31;1760619;81;20975;-85
2022/04/08 08:46:18;;;;;;;6.60;3.80;;;;;;;23.72;32.74;99152.41;1758492;80;21053;-84
2022/04/08 08:48:46;;;;;;;12.37;5.25;;;;;;;24.06;32.31;99145.05;1758644;81;21273;-84
2022/04/08 08:51:14;;;;;;;9.53;4.03;;;;;;;24.31;32.05;99151.77;1758390;80;20865;-85
2022/04/08 08:53:42;;;;;;;9.75;4.12;;;;;;;24.74;31.35;99143.80;1758386;81;20916;-84
2022/04/08 08:56:08;;;;;;;8.48;3.87;;;;;;;25.05;30.79;99139.36;1758460;80;20948;-84
2022/04/08 08:58:36;;;;;;;7.33;3.75;;;;;;;25.27;30.71;99129.56;1758568;80;20885;-83
2022/04/08 09:01:08;;;;;;;7.55;3.80;;;;;;;25.49;30.38;99124.55;1758514;81;21102;-83
2022/04/08 09:03:39;;;;;;;8.03;3.65;;;;;;;25.79;30.58;99120.02;1758443;81;20951;-85
2022/04/08 09:06:08;;;;;;;15.70;4.17;;;;;;;26.11;29.58;99122.46;1758533;81;20857;-87
2022/04/08 09:08:36;;;;;;;6.28;3.83;;;;;;;25.97;29.51;99115.13;1758568;81;20920;-84
2022/04/08 09:11:05;;;;;;;12.30;3.90;;;;;;;25.96;29.82;99120.20;1758427;80;21397;-85
2022/04/08 09:13:43;;;;;;;11.78;3.90;;;;;;;26.17;29.66;99116.70;1758366;81;21792;-85
2022/04/08 09:16:12;;;;;;;8.70;3.65;;;;;;;26.41;29.29;99118.88;1758370;80;20980;-83
2022/04/08 09:18:42;;;;;;;12.35;4.00;;;;;;;26.53;29.18;99119.72;1758843;81;20916;-85
2022/04/08 09:21:09;;;;;;;14.18;4.33;;;;;;;26.67;28.42;99121.67;1758975;81;20991;-85
2022/04/08 09:23:38;;;;;;;13.22;4.90;;;;;;;26.81;28.66;99123.59;1758498;81;20951;-84
2022/04/08 09:26:05;;;;;;;7.12;4.20;;;;;;;26.99;28.12;99119.44;1675447;83;21956;-85
2022/04/08 09:28:36;;;;;;;10.60;4.92;;;;;;;26.96;28.14;99122.58;1726319;82;20891;-85
2022/04/08 09:31:04;;;;;;;13.25;6.03;;;;;;;26.89;27.81;99121.89;1719074;82;20884;-82
2022/04/08 09:33:32;;;;;;;6.80;5.25;;;;;;;26.69;28.20;99116.87;1717199;83;20935;-85
2022/04/08 09:36:00;;;;;;;17.25;6.10;;;;;;;26.59;28.70;99126.05;1717444;83;20955;-84
2022/04/08 09:38:30;;;;;;;11.75;6.85;;;;;;;26.64;28.70;99124.84;1717153;83;21096;-83
2022/04/08 09:41:04;;;;;;;11.15;5.05;;;;;;;26.43;28.67;99117.59;1717020;83;20947;-83
2022/04/08 09:43:34;;;;;;;13.43;4.47;;;;;;;26.18;28.84;99117.80;1716438;83;20928;-84
2022/04/08 09:46:19;;;;;;;10.48;3.40;;;;;;;26.12;28.99;99121.93;1752951;81;20931;-83
2022/04/08 09:48:48;;;;;;;7.55;3.08;;;;;;;26.06;29.50;99118.31;1753135;80;20972;-85
2022/04/08 09:51:23;;;;;;;14.03;4.60;;;;;;;26.02;29.13;99126.53;1752997;82;21203;-85
2022/04/08 09:54:00;;;;;;;10.28;3.87;;;;;;;25.84;29.25;99122.02;1752916;81;20972;-85
2022/04/08 09:56:29;;;;;;;10.00;3.67;;;;;;;25.51;29.70;99114.41;1753092;82;20968;-85
2022/04/08 09:59:14;;;;;;;13.38;4.70;;;;;;;25.33;29.93;99122.78;1753501;82;20940;-84
2022/04/08 10:01:44;;;;;;;8.23;3.67;;;;;;;25.09;30.26;99128.48;1755716;80;20952;-84
2022/04/08 10:04:12;;;;;;;13.78;5.03;;;;;;;24.73;30.67;99127.95;1755741;79;21155;-85
2022/04/08 10:06:41;;;;;;;8.35;4.10;;;;;;;24.39;31.09;99137.59;1719532;80;20895;-85
2022/04/08 10:09:11;;;;;;;11.63;4.10;;;;;;;24.02;31.38;99137.95;1718462;80;20995;-83
2022/04/08 10:12:02;;;;;;;8.70;3.10;;;;;;;23.64;32.19;99138.77;1713942;82;20952;-84
2022/04/08 10:14:49;;;;;;;13.00;4.50;;;;;;;23.29;32.88;99128.41;1716769;83;20907;-85
2022/04/08 10:17:17;;;;;;;9.93;3.65;;;;;;;22.87;33.38;99137.75;1717003;83;22000;-85
2022/04/08 10:19:44;;;;;;;9.05;4.12;;;;;;;22.55;33.97;99135.73;1734487;82;20935;-84
2022/04/08 10:22:17;;;;;;;10.68;4.65;;;;;;;22.31;34.62;99141.17;1753799;80;20940;-86
2022/04/08 10:24:54;;;;;;;7.05;2.72;;;;;;;22.12;34.84;99138.78;1753272;82;20913;-83
2022/04/08 10:27:38;;;;;;;11.10;3.70;;;;;;;21.87;35.48;99145.70;1752846;82;21393;-85
2022/04/08 10:30:24;;;;;;;10.55;4.00;;;;;;;21.67;36.00;99142.45;1751871;81;21647;-82
2022/04/08 10:33:03;;;;;;;16.12;3.58;;;;;;;21.40;36.51;99149.50;1739128;82;20941;-84
2022/04/08 10:35:31;;;;;;;6.72;3.60;;;;;;;21.15;37.01;99149.70;1745496;81;20877;-85
2022/04/08 10:38:06;;;;;;;6.97;3.90;;;;;;;20.90;37.39;99162.16;1745440;81;21484;-83
2022/04/08 10:40:35;;;;;;;10.08;3.27;;;;;;;20.70;37.71;99163.36;1746038;81;20897;-84
2022/04/08 10:43:05;;;;;;;7.03;3.33;;;;;;;20.55;38.06;99162.07;1746235;81;21450;-86
2022/04/08 10:45:33;;;;;;;7.45;2.60;;;;;;;20.45;38.41;99165.56;1745894;82;20928;-84
2022/04/08 10:48:13;;;;;;;11.95;3.10;;;;;;;20.42;38.49;99173.42;1701229;83;20909;-83
2022/04/08 10:50:43;;;;;;;8.55;3.45;;;;;;;20.39;38.49;99169.83;1746193;81;20941;-84
2022/04/08 10:53:20;;;;;;;11.90;2.90;;;;;;;20.35;38.48;99163.23;1748430;80;20936;-83
2022/04/08 10:55:57;;;;;;;8.35;3.30;;;;;;;20.29;38.91;99160.00;1685517;84;20878;-82
2022/04/08 10:58:45;;;;;;;9.13;2.98;;;;;;;20.26;39.14;99158.55;1666031;86;21349;-83
2022/04/08 11:01:17;;;;;;;9.98;3.65;;;;;;;20.37;39.15;99164.38;1666874;86;21377;-86
2022/04/08 11:03:48;;;;;;;7.83;3.30;;;;;;;20.55;38.54;99167.40;1665898;86;20999;-85
2022/04/08 11:06:18;;;;;;;32.17;28.35;;;;;;;20.59;38.32;99167.88;1636006;86;20948;-86
2022/04/08 11:08:46;;;;;;;39.55;29.63;;;;;;;20.58;38.41;99163.04;1665940;86;21816;-85
2022/04/08 11:11:14;;;;;;;17.40;9.90;;;;;;;20.55;38.51;99164.73;1665637;85;20976;-84
2022/04/08 11:13:42;;;;;;;11.65;4.95;;;;;;;20.52;38.70;99173.61;1665659;86;21416;-83
2022/04/08 11:16:10;;;;;;;9.10;4.10;;;;;;;20.41;38.76;99171.80;1665354;86;20872;-83
2022/04/08 11:18:43;;;;;;;12.25;5.50;;;;;;;20.30;39.03;99176.30;1665993;86;20960;-84
2022/04/08 11:21:18;;;;;;;7.90;4.47;;;;;;;20.20;39.21;99180.59;1665129;83;21244;-84
2022/04/08 11:24:04;;;;;;;7.28;4.33;;;;;;;20.12;39.57;99177.23;1665522;86;20995;-83
2022/04/08 11:26:43;;;;;;;6.72;3.42;;;;;;;20.09;39.72;99176.59;1665523;86;20986;-84
2022/04/08 11:29:15;;;;;;;6.20;3.75;;;;;;;20.13;39.57;99178.38;1665376;86;20951;-83
2022/04/08 11:31:44;;;;;;;9.70;4.70;;;;;;;20.11;39.54;99180.92;1665901;86;20991;-82
2022/04/08 11:34:16;;;;;;;9.95;3.42;;;;;;;20.08;39.45;99173.62;1665788;86;21254;-84
2022/04/08 11:36:44;;;;;;;8.50;3.00;;;;;;;20.04;39.44;99174.20;1666433;86;20960;-83
2022/04/08 11:39:21;;;;;;;6.50;3.58;;;;;;;19.97;39.48;99171.98;1667055;85;20908;-83
2022/04/08 11:41:54;;;;;;;12.98;3.75;;;;;;;19.88;39.76;99177.92;1665743;86;21397;-82